world map with LIRV marked

LIRV - Airport

This information may not be accurate or current and is not valid for navigation or flight planning. No warranty of fitness for any purpose is made or implied.

flag of Italy

Donate via PayPal

Additional information is available on the NEW Great Circle Mapper

Location
City:  Viterbo, Lazio, Italy
Name:Rome Viterbo Airport (Viterbo AFB, Tommasso Fabri)
ICAO:LIRV

Details
Type:Airport (Aerodrome, Airfield)
Use:Public/Civil, Military
Latitude:42°25'49"N (42.430183)
Longitude:12°03'51"E (12.064156)
Datum:WGS 1984
Elevation:990 ft (302 m)
Runways:3
Longest:4265 × 164 ft (1300 × 50 m)

Time
Timezone:UTC+1 (DST+2)
Local Time:

Weather
METAR:LIRV  251755Z 06008KT CAVOK 12/06 Q1018 RMK SKC MON E SE LIB NC VIS MIN 9999 BLU
TAF:LIRV  (expired)

Related Locations
Nearby:
Farthest:CHT: 11999 mi / 19311 km
Waitangi [Tuuta], Chatham Islands, NZ

Find:

   beyond  
but within

Other Information
Maps:
Links:
Sources:

  


 


Great Circle Mapper   Great Circle Mapper
Great Circle Mapper FAQ   Great Circle Mapper FAQ
  Karl's Home Page
KLSē   KLSē Home
   GC on Facebook
Airlines of the World   Airlines of the World
Donate via PayPal


Copyright © 2004-2014, Karl L. Swartz. All rights reserved.
All trademarks mentioned herein belong to their respective owners.

Please see credits for attribution and copyright information.

Karl Swartz <karl@kls2.com>
  Powered by FreeBSD
Valid HTML 4.01!
Labeled with ICRA
hCard Microformat
Geo Microformat